sensor_id;sensor_type;location;lat;lon;timestamp;P1;durP1;ratioP1;P2;durP2;ratioP2
47866;SDS011;33628;50.806;11.586;2024-03-02T00:01:19;1728.72;;;999.90;;
47866;SDS011;33628;50.806;11.586;2024-03-02T00:03:45;1767.93;;;999.90;;
47866;SDS011;33628;50.806;11.586;2024-03-02T00:06:14;1764.15;;;999.90;;
47866;SDS011;33628;50.806;11.586;2024-03-02T00:08:41;1757.50;;;999.90;;
47866;SDS011;33628;50.806;11.586;2024-03-02T00:11:07;1708.03;;;999.90;;
47866;SDS011;33628;50.806;11.586;2024-03-02T00:13:34;1688.68;;;999.90;;
47866;SDS011;33628;50.806;11.586;2024-03-02T00:16:01;1700.57;;;999.90;;
47866;SDS011;33628;50.806;11.586;2024-03-02T00:18:31;1775.88;;;999.90;;
47866;SDS011;33628;50.806;11.586;2024-03-02T00:20:58;1760.95;;;999.90;;
47866;SDS011;33628;50.806;11.586;2024-03-02T00:23:29;1773.80;;;999.90;;
47866;SDS011;33628;50.806;11.586;2024-03-02T00:25:59;1752.32;;;999.90;;
47866;SDS011;33628;50.806;11.586;2024-03-02T00:28:27;1690.82;;;999.90;;
47866;SDS011;33628;50.806;11.586;2024-03-02T00:30:55;1722.72;;;999.90;;
47866;SDS011;33628;50.806;11.586;2024-03-02T00:33:25;1725.15;;;999.90;;
47866;SDS011;33628;50.806;11.586;2024-03-02T00:35:53;1730.47;;;999.90;;
47866;SDS011;33628;50.806;11.586;2024-03-02T00:38:20;1733.43;;;999.90;;
47866;SDS011;33628;50.806;11.586;2024-03-02T00:40:48;1748.25;;;999.90;;
47866;SDS011;33628;50.806;11.586;2024-03-02T00:43:24;1748.72;;;999.90;;
47866;SDS011;33628;50.806;11.586;2024-03-02T00:46:12;1725.90;;;999.90;;
47866;SDS011;33628;50.806;11.586;2024-03-02T00:48:39;1741.78;;;999.90;;
47866;SDS011;33628;50.806;11.586;2024-03-02T00:51:14;1751.68;;;999.90;;
47866;SDS011;33628;50.806;11.586;2024-03-02T00:53:40;1764.90;;;999.90;;
47866;SDS011;33628;50.806;11.586;2024-03-02T00:56:09;1765.32;;;999.90;;
47866;SDS011;33628;50.806;11.586;2024-03-02T00:58:37;1763.20;;;999.90;;
47866;SDS011;33628;50.806;11.586;2024-03-02T01:01:04;1732.35;;;999.90;;
47866;SDS011;33628;50.806;11.586;2024-03-02T01:03:31;1497.32;;;999.90;;
47866;SDS011;33628;50.806;11.586;2024-03-02T01:05:58;1781.15;;;999.90;;
47866;SDS011;33628;50.806;11.586;2024-03-02T01:08:25;1781.57;;;999.90;;
47866;SDS011;33628;50.806;11.586;2024-03-02T01:10:52;1473.10;;;999.90;;
47866;SDS011;33628;50.806;11.586;2024-03-02T01:13:20;1760.22;;;999.90;;
47866;SDS011;33628;50.806;11.586;2024-03-02T01:15:47;1812.45;;;999.90;;
47866;SDS011;33628;50.806;11.586;2024-03-02T01:18:14;1771.30;;;999.90;;
47866;SDS011;33628;50.806;11.586;2024-03-02T01:20:40;1595.03;;;999.90;;
47866;SDS011;33628;50.806;11.586;2024-03-02T01:23:07;1394.50;;;999.90;;
47866;SDS011;33628;50.806;11.586;2024-03-02T01:25:33;1591.97;;;999.90;;
47866;SDS011;33628;50.806;11.586;2024-03-02T01:28:01;1584.88;;;999.90;;
47866;SDS011;33628;50.806;11.586;2024-03-02T01:30:29;1658.85;;;999.90;;
47866;SDS011;33628;50.806;11.586;2024-03-02T01:32:56;1533.82;;;999.90;;
47866;SDS011;33628;50.806;11.586;2024-03-02T01:35:25;1429.40;;;999.90;;
47866;SDS011;33628;50.806;11.586;2024-03-02T01:37:53;104.40;;;92.97;;
47866;SDS011;33628;50.806;11.586;2024-03-02T01:40:20;217.30;;;175.75;;
47866;SDS011;33628;50.806;11.586;2024-03-02T01:42:47;392.83;;;304.35;;
47866;SDS011;33628;50.806;11.586;2024-03-02T01:45:13;346.83;;;260.40;;
47866;SDS011;33628;50.806;11.586;2024-03-02T01:47:41;341.58;;;255.20;;
47866;SDS011;33628;50.806;11.586;2024-03-02T01:50:08;425.83;;;341.80;;
47866;SDS011;33628;50.806;11.586;2024-03-02T01:52:37;184.82;;;159.43;;
47866;SDS011;33628;50.806;11.586;2024-03-02T01:55:03;184.88;;;159.18;;
47866;SDS011;33628;50.806;11.586;2024-03-02T01:57:31;231.63;;;180.48;;
47866;SDS011;33628;50.806;11.586;2024-03-02T01:59:58;336.45;;;261.55;;
47866;SDS011;33628;50.806;11.586;2024-03-02T02:02:25;1348.25;;;999.90;;
47866;SDS011;33628;50.806;11.586;2024-03-02T02:04:53;1174.20;;;999.90;;
47866;SDS011;33628;50.806;11.586;2024-03-02T02:07:20;1225.40;;;999.90;;
47866;SDS011;33628;50.806;11.586;2024-03-02T02:09:47;873.10;;;782.05;;
47866;SDS011;33628;50.806;11.586;2024-03-02T02:12:13;921.55;;;826.30;;
47866;SDS011;33628;50.806;11.586;2024-03-02T02:14:46;1234.43;;;999.90;;
47866;SDS011;33628;50.806;11.586;2024-03-02T02:17:14;1240.72;;;999.90;;
47866;SDS011;33628;50.806;11.586;2024-03-02T02:19:41;1291.50;;;999.90;;
47866;SDS011;33628;50.806;11.586;2024-03-02T02:22:09;1347.25;;;999.90;;
47866;SDS011;33628;50.806;11.586;2024-03-02T02:24:36;1236.22;;;999.90;;
47866;SDS011;33628;50.806;11.586;2024-03-02T02:27:06;1330.68;;;999.90;;
47866;SDS011;33628;50.806;11.586;2024-03-02T02:29:32;1261.13;;;999.90;;
47866;SDS011;33628;50.806;11.586;2024-03-02T02:31:59;1390.65;;;999.90;;
47866;SDS011;33628;50.806;11.586;2024-03-02T02:34:25;1164.32;;;999.90;;
47866;SDS011;33628;50.806;11.586;2024-03-02T02:36:52;1386.38;;;999.90;;
47866;SDS011;33628;50.806;11.586;2024-03-02T02:39:21;1583.80;;;999.90;;
47866;SDS011;33628;50.806;11.586;2024-03-02T02:41:50;1569.68;;;999.90;;
47866;SDS011;33628;50.806;11.586;2024-03-02T02:44:17;1565.40;;;999.90;;
47866;SDS011;33628;50.806;11.586;2024-03-02T02:46:44;1258.88;;;983.90;;
47866;SDS011;33628;50.806;11.586;2024-03-02T02:49:10;1642.93;;;999.90;;
47866;SDS011;33628;50.806;11.586;2024-03-02T02:51:37;1608.88;;;999.90;;
47866;SDS011;33628;50.806;11.586;2024-03-02T02:54:03;1661.43;;;999.90;;
47866;SDS011;33628;50.806;11.586;2024-03-02T02:56:31;1657.50;;;999.90;;
47866;SDS011;33628;50.806;11.586;2024-03-02T02:58:58;1557.35;;;999.90;;
47866;SDS011;33628;50.806;11.586;2024-03-02T03:01:24;1453.38;;;999.90;;
47866;SDS011;33628;50.806;11.586;2024-03-02T03:03:51;1387.28;;;999.90;;
47866;SDS011;33628;50.806;11.586;2024-03-02T03:06:18;1368.05;;;999.90;;
47866;SDS011;33628;50.806;11.586;2024-03-02T03:08:44;1360.40;;;999.90;;
47866;SDS011;33628;50.806;11.586;2024-03-02T03:11:11;1289.35;;;999.90;;
47866;SDS011;33628;50.806;11.586;2024-03-02T03:13:39;1399.32;;;999.90;;
47866;SDS011;33628;50.806;11.586;2024-03-02T03:16:05;1319.88;;;999.90;;
47866;SDS011;33628;50.806;11.586;2024-03-02T03:18:32;1321.05;;;999.90;;
47866;SDS011;33628;50.806;11.586;2024-03-02T03:20:59;1351.82;;;999.90;;
47866;SDS011;33628;50.806;11.586;2024-03-02T03:23:25;1332.15;;;999.90;;
47866;SDS011;33628;50.806;11.586;2024-03-02T03:25:52;1326.20;;;999.90;;
47866;SDS011;33628;50.806;11.586;2024-03-02T03:28:18;1390.85;;;999.90;;
47866;SDS011;33628;50.806;11.586;2024-03-02T03:30:46;1284.00;;;999.90;;
47866;SDS011;33628;50.806;11.586;2024-03-02T03:33:13;1496.78;;;999.90;;
47866;SDS011;33628;50.806;11.586;2024-03-02T03:35:40;1517.55;;;999.90;;
47866;SDS011;33628;50.806;11.586;2024-03-02T03:38:06;1272.38;;;999.90;;
47866;SDS011;33628;50.806;11.586;2024-03-02T03:40:33;1561.38;;;999.90;;
47866;SDS011;33628;50.806;11.586;2024-03-02T03:42:59;1616.13;;;999.90;;
47866;SDS011;33628;50.806;11.586;2024-03-02T03:45:26;1326.88;;;999.90;;
47866;SDS011;33628;50.806;11.586;2024-03-02T03:47:54;1480.10;;;999.90;;
47866;SDS011;33628;50.806;11.586;2024-03-02T03:50:21;1437.60;;;999.90;;
47866;SDS011;33628;50.806;11.586;2024-03-02T03:52:48;1394.10;;;999.90;;
47866;SDS011;33628;50.806;11.586;2024-03-02T03:55:14;1283.80;;;999.90;;
47866;SDS011;33628;50.806;11.586;2024-03-02T03:57:40;1304.43;;;999.90;;
47866;SDS011;33628;50.806;11.586;2024-03-02T04:00:07;1364.32;;;999.90;;
47866;SDS011;33628;50.806;11.586;2024-03-02T04:02:38;1575.65;;;999.90;;
47866;SDS011;33628;50.806;11.586;2024-03-02T04:05:07;1568.47;;;999.90;;
47866;SDS011;33628;50.806;11.586;2024-03-02T04:07:36;1557.57;;;999.90;;
47866;SDS011;33628;50.806;11.586;2024-03-02T04:10:07;1573.75;;;999.90;;
47866;SDS011;33628;50.806;11.586;2024-03-02T04:12:34;1409.05;;;999.90;;
47866;SDS011;33628;50.806;11.586;2024-03-02T04:15:02;595.13;;;488.48;;
47866;SDS011;33628;50.806;11.586;2024-03-02T04:17:31;275.02;;;212.70;;
47866;SDS011;33628;50.806;11.586;2024-03-02T04:19:58;22.58;;;10.10;;
47866;SDS011;33628;50.806;11.586;2024-03-02T04:22:26;414.92;;;310.67;;
47866;SDS011;33628;50.806;11.586;2024-03-02T04:24:52;672.03;;;586.95;;
47866;SDS011;33628;50.806;11.586;2024-03-02T04:27:19;1281.47;;;999.90;;
47866;SDS011;33628;50.806;11.586;2024-03-02T04:29:46;1339.20;;;999.90;;
47866;SDS011;33628;50.806;11.586;2024-03-02T04:32:12;1302.55;;;999.90;;
47866;SDS011;33628;50.806;11.586;2024-03-02T04:34:39;1604.97;;;999.90;;
47866;SDS011;33628;50.806;11.586;2024-03-02T04:37:05;1266.05;;;999.90;;
47866;SDS011;33628;50.806;11.586;2024-03-02T04:39:33;1474.03;;;999.90;;
47866;SDS011;33628;50.806;11.586;2024-03-02T04:42:00;1423.30;;;999.90;;
47866;SDS011;33628;50.806;11.586;2024-03-02T04:44:28;976.38;;;875.35;;
47866;SDS011;33628;50.806;11.586;2024-03-02T04:46:55;717.28;;;636.28;;
47866;SDS011;33628;50.806;11.586;2024-03-02T04:49:21;811.78;;;723.83;;
47866;SDS011;33628;50.806;11.586;2024-03-02T04:51:48;458.27;;;359.45;;
47866;SDS011;33628;50.806;11.586;2024-03-02T04:54:14;1037.78;;;932.05;;
47866;SDS011;33628;50.806;11.586;2024-03-02T04:56:42;1371.97;;;999.90;;
47866;SDS011;33628;50.806;11.586;2024-03-02T04:59:15;1277.38;;;999.90;;
47866;SDS011;33628;50.806;11.586;2024-03-02T05:01:42;1239.82;;;999.90;;
47866;SDS011;33628;50.806;11.586;2024-03-02T05:04:09;898.40;;;803.20;;
47866;SDS011;33628;50.806;11.586;2024-03-02T05:06:38;1249.75;;;999.90;;
47866;SDS011;33628;50.806;11.586;2024-03-02T05:09:08;600.90;;;499.35;;
47866;SDS011;33628;50.806;11.586;2024-03-02T05:11:35;1231.30;;;999.90;;
47866;SDS011;33628;50.806;11.586;2024-03-02T05:14:06;1512.18;;;999.90;;
47866;SDS011;33628;50.806;11.586;2024-03-02T05:16:32;1608.93;;;999.90;;
47866;SDS011;33628;50.806;11.586;2024-03-02T05:23:12;565.95;;;494.42;;
47866;SDS011;33628;50.806;11.586;2024-03-02T05:25:39;947.15;;;846.40;;
47866;SDS011;33628;50.806;11.586;2024-03-02T05:28:06;1539.32;;;999.90;;
47866;SDS011;33628;50.806;11.586;2024-03-02T05:30:33;1544.28;;;999.90;;
47866;SDS011;33628;50.806;11.586;2024-03-02T05:33:01;1646.70;;;999.90;;
47866;SDS011;33628;50.806;11.586;2024-03-02T05:35:28;1647.70;;;999.90;;
47866;SDS011;33628;50.806;11.586;2024-03-02T05:37:54;1715.22;;;999.90;;
47866;SDS011;33628;50.806;11.586;2024-03-02T05:40:21;58.13;;;32.90;;
47866;SDS011;33628;50.806;11.586;2024-03-02T05:42:47;491.02;;;394.85;;
47866;SDS011;33628;50.806;11.586;2024-03-02T05:45:14;254.05;;;199.70;;
47866;SDS011;33628;50.806;11.586;2024-03-02T05:47:43;403.73;;;305.15;;
47866;SDS011;33628;50.806;11.586;2024-03-02T05:50:10;530.38;;;432.42;;
47866;SDS011;33628;50.806;11.586;2024-03-02T05:52:36;346.42;;;246.55;;
47866;SDS011;33628;50.806;11.586;2024-03-02T05:55:03;665.05;;;571.03;;
47866;SDS011;33628;50.806;11.586;2024-03-02T05:57:30;790.17;;;703.97;;
47866;SDS011;33628;50.806;11.586;2024-03-02T06:00:09;874.80;;;780.28;;
47866;SDS011;33628;50.806;11.586;2024-03-02T06:02:39;1101.30;;;987.17;;
47866;SDS011;33628;50.806;11.586;2024-03-02T06:05:08;1011.00;;;906.97;;
47866;SDS011;33628;50.806;11.586;2024-03-02T06:07:35;698.63;;;614.97;;
47866;SDS011;33628;50.806;11.586;2024-03-02T06:10:01;1590.75;;;999.90;;
47866;SDS011;33628;50.806;11.586;2024-03-02T06:12:28;1712.85;;;999.90;;
47866;SDS011;33628;50.806;11.586;2024-03-02T06:14:56;1714.18;;;999.90;;
47866;SDS011;33628;50.806;11.586;2024-03-02T06:17:23;1673.75;;;999.90;;
47866;SDS011;33628;50.806;11.586;2024-03-02T06:19:49;1746.70;;;999.90;;
47866;SDS011;33628;50.806;11.586;2024-03-02T06:22:17;1659.93;;;999.90;;
47866;SDS011;33628;50.806;11.586;2024-03-02T06:24:45;153.32;;;109.53;;
47866;SDS011;33628;50.806;11.586;2024-03-02T06:27:12;869.05;;;672.40;;
47866;SDS011;33628;50.806;11.586;2024-03-02T06:29:38;721.92;;;592.80;;
47866;SDS011;33628;50.806;11.586;2024-03-02T06:32:05;1745.53;;;999.90;;
47866;SDS011;33628;50.806;11.586;2024-03-02T06:34:32;1805.15;;;999.90;;
47866;SDS011;33628;50.806;11.586;2024-03-02T06:36:58;1333.63;;;932.78;;
47866;SDS011;33628;50.806;11.586;2024-03-02T06:39:26;1686.82;;;999.90;;
47866;SDS011;33628;50.806;11.586;2024-03-02T06:41:53;1618.63;;;999.90;;
47866;SDS011;33628;50.806;11.586;2024-03-02T06:44:19;1708.68;;;999.90;;
47866;SDS011;33628;50.806;11.586;2024-03-02T06:46:47;1369.00;;;939.58;;
47866;SDS011;33628;50.806;11.586;2024-03-02T06:49:13;26.23;;;11.10;;
47866;SDS011;33628;50.806;11.586;2024-03-02T06:51:40;27.67;;;11.55;;
47866;SDS011;33628;50.806;11.586;2024-03-02T06:54:07;32.08;;;10.95;;
47866;SDS011;33628;50.806;11.586;2024-03-02T06:56:35;30.60;;;12.10;;
47866;SDS011;33628;50.806;11.586;2024-03-02T06:59:04;26.08;;;11.02;;
47866;SDS011;33628;50.806;11.586;2024-03-02T07:01:30;25.17;;;11.50;;
47866;SDS011;33628;50.806;11.586;2024-03-02T07:03:57;32.08;;;12.23;;
47866;SDS011;33628;50.806;11.586;2024-03-02T07:06:23;147.52;;;131.82;;
47866;SDS011;33628;50.806;11.586;2024-03-02T07:12:58;37.58;;;33.33;;
47866;SDS011;33628;50.806;11.586;2024-03-02T07:15:24;29.83;;;18.98;;
47866;SDS011;33628;50.806;11.586;2024-03-02T07:17:54;226.75;;;172.98;;
47866;SDS011;33628;50.806;11.586;2024-03-02T07:20:20;21.90;;;10.57;;
47866;SDS011;33628;50.806;11.586;2024-03-02T07:22:47;23.55;;;10.23;;
47866;SDS011;33628;50.806;11.586;2024-03-02T07:25:14;274.65;;;184.55;;
47866;SDS011;33628;50.806;11.586;2024-03-02T07:27:40;25.27;;;10.88;;
47866;SDS011;33628;50.806;11.586;2024-03-02T07:30:09;26.95;;;11.25;;
47866;SDS011;33628;50.806;11.586;2024-03-02T07:32:39;27.10;;;11.50;;
47866;SDS011;33628;50.806;11.586;2024-03-02T07:35:07;23.67;;;11.10;;
47866;SDS011;33628;50.806;11.586;2024-03-02T07:37:34;234.32;;;157.30;;
47866;SDS011;33628;50.806;11.586;2024-03-02T07:40:00;458.70;;;339.98;;
47866;SDS011;33628;50.806;11.586;2024-03-02T07:42:27;89.93;;;56.92;;
47866;SDS011;33628;50.806;11.586;2024-03-02T07:44:53;183.20;;;122.75;;
47866;SDS011;33628;50.806;11.586;2024-03-02T07:47:21;244.57;;;172.48;;
47866;SDS011;33628;50.806;11.586;2024-03-02T07:49:48;234.93;;;165.57;;
47866;SDS011;33628;50.806;11.586;2024-03-02T07:52:18;118.82;;;79.47;;
47866;SDS011;33628;50.806;11.586;2024-03-02T07:54:57;28.55;;;13.80;;
47866;SDS011;33628;50.806;11.586;2024-03-02T07:57:24;267.40;;;180.77;;
47866;SDS011;33628;50.806;11.586;2024-03-02T07:59:51;34.00;;;13.40;;
47866;SDS011;33628;50.806;11.586;2024-03-02T08:02:17;404.50;;;287.98;;
47866;SDS011;33628;50.806;11.586;2024-03-02T08:04:45;37.45;;;19.85;;
47866;SDS011;33628;50.806;11.586;2024-03-02T08:07:12;529.92;;;416.30;;
47866;SDS011;33628;50.806;11.586;2024-03-02T08:09:38;141.10;;;101.93;;
47866;SDS011;33628;50.806;11.586;2024-03-02T08:12:05;687.30;;;591.05;;
47866;SDS011;33628;50.806;11.586;2024-03-02T08:14:32;790.80;;;699.95;;
47866;SDS011;33628;50.806;11.586;2024-03-02T08:16:59;979.13;;;875.35;;
47866;SDS011;33628;50.806;11.586;2024-03-02T08:19:27;838.08;;;747.08;;
47866;SDS011;33628;50.806;11.586;2024-03-02T08:21:55;30.60;;;11.75;;
47866;SDS011;33628;50.806;11.586;2024-03-02T08:24:22;549.60;;;464.15;;
47866;SDS011;33628;50.806;11.586;2024-03-02T08:26:48;1004.88;;;894.63;;
47866;SDS011;33628;50.806;11.586;2024-03-02T08:29:15;1065.28;;;949.92;;
47866;SDS011;33628;50.806;11.586;2024-03-02T08:31:41;1280.97;;;999.90;;
47866;SDS011;33628;50.806;11.586;2024-03-02T08:34:08;1342.70;;;999.90;;
47866;SDS011;33628;50.806;11.586;2024-03-02T08:36:35;1265.68;;;999.90;;
47866;SDS011;33628;50.806;11.586;2024-03-02T08:39:03;1341.60;;;999.90;;
47866;SDS011;33628;50.806;11.586;2024-03-02T08:41:33;1577.70;;;999.90;;
47866;SDS011;33628;50.806;11.586;2024-03-02T08:43:59;1678.63;;;999.90;;
47866;SDS011;33628;50.806;11.586;2024-03-02T08:46:26;1639.68;;;999.90;;
47866;SDS011;33628;50.806;11.586;2024-03-02T08:48:53;1625.38;;;999.90;;
47866;SDS011;33628;50.806;11.586;2024-03-02T08:51:20;1649.43;;;999.90;;
47866;SDS011;33628;50.806;11.586;2024-03-02T08:53:47;1740.68;;;999.90;;
47866;SDS011;33628;50.806;11.586;2024-03-02T08:56:15;1666.65;;;999.90;;
47866;SDS011;33628;50.806;11.586;2024-03-02T08:58:41;1579.60;;;999.90;;
47866;SDS011;33628;50.806;11.586;2024-03-02T09:01:09;1572.18;;;999.90;;
47866;SDS011;33628;50.806;11.586;2024-03-02T09:03:36;1587.85;;;999.90;;
47866;SDS011;33628;50.806;11.586;2024-03-02T09:06:03;1529.57;;;999.90;;
47866;SDS011;33628;50.806;11.586;2024-03-02T09:08:30;1633.85;;;999.90;;
47866;SDS011;33628;50.806;11.586;2024-03-02T09:10:56;1243.78;;;999.90;;
47866;SDS011;33628;50.806;11.586;2024-03-02T09:13:26;1364.63;;;999.90;;
47866;SDS011;33628;50.806;11.586;2024-03-02T09:15:52;1491.45;;;999.90;;
47866;SDS011;33628;50.806;11.586;2024-03-02T09:18:19;942.08;;;809.58;;
47866;SDS011;33628;50.806;11.586;2024-03-02T09:20:45;1149.70;;;999.90;;
47866;SDS011;33628;50.806;11.586;2024-03-02T09:23:12;1288.45;;;999.90;;
47866;SDS011;33628;50.806;11.586;2024-03-02T09:25:38;1023.85;;;887.42;;
47866;SDS011;33628;50.806;11.586;2024-03-02T09:28:05;1071.80;;;931.47;;
47866;SDS011;33628;50.806;11.586;2024-03-02T09:30:34;1226.53;;;999.90;;
47866;SDS011;33628;50.806;11.586;2024-03-02T09:33:01;1003.20;;;858.65;;
47866;SDS011;33628;50.806;11.586;2024-03-02T09:35:27;970.95;;;825.90;;
47866;SDS011;33628;50.806;11.586;2024-03-02T09:37:55;878.67;;;729.72;;
47866;SDS011;33628;50.806;11.586;2024-03-02T09:40:21;1000.00;;;859.72;;
47866;SDS011;33628;50.806;11.586;2024-03-02T09:42:48;1271.00;;;999.90;;
47866;SDS011;33628;50.806;11.586;2024-03-02T09:45:19;1481.63;;;999.90;;
47866;SDS011;33628;50.806;11.586;2024-03-02T09:47:51;1343.47;;;999.90;;
47866;SDS011;33628;50.806;11.586;2024-03-02T09:50:17;1572.15;;;999.90;;
47866;SDS011;33628;50.806;11.586;2024-03-02T09:52:44;1067.88;;;873.80;;
47866;SDS011;33628;50.806;11.586;2024-03-02T09:55:14;1068.75;;;931.47;;
47866;SDS011;33628;50.806;11.586;2024-03-02T09:57:42;1153.18;;;999.90;;
47866;SDS011;33628;50.806;11.586;2024-03-02T10:00:09;1050.72;;;926.47;;
47866;SDS011;33628;50.806;11.586;2024-03-02T10:02:40;1399.90;;;999.90;;
47866;SDS011;33628;50.806;11.586;2024-03-02T10:05:08;1198.38;;;999.90;;
47866;SDS011;33628;50.806;11.586;2024-03-02T10:07:36;1477.28;;;999.90;;
47866;SDS011;33628;50.806;11.586;2024-03-02T10:10:12;1610.82;;;999.90;;
47866;SDS011;33628;50.806;11.586;2024-03-02T10:12:40;1360.97;;;999.90;;
47866;SDS011;33628;50.806;11.586;2024-03-02T10:15:07;1712.47;;;999.90;;
47866;SDS011;33628;50.806;11.586;2024-03-02T10:17:37;1837.60;;;999.90;;
47866;SDS011;33628;50.806;11.586;2024-03-02T10:22:50;700.53;;;493.02;;
47866;SDS011;33628;50.806;11.586;2024-03-02T10:25:28;741.47;;;545.45;;
47866;SDS011;33628;50.806;11.586;2024-03-02T10:27:58;1768.53;;;999.90;;
47866;SDS011;33628;50.806;11.586;2024-03-02T10:30:28;1851.38;;;999.90;;
47866;SDS011;33628;50.806;11.586;2024-03-02T10:32:56;1921.82;;;999.90;;
47866;SDS011;33628;50.806;11.586;2024-03-02T10:35:24;1999.90;;;999.90;;
47866;SDS011;33628;50.806;11.586;2024-03-02T10:37:52;1990.85;;;999.90;;
47866;SDS011;33628;50.806;11.586;2024-03-02T10:40:24;1999.38;;;999.90;;
47866;SDS011;33628;50.806;11.586;2024-03-02T10:47:02;1897.95;;;999.90;;
47866;SDS011;33628;50.806;11.586;2024-03-02T10:49:29;1921.85;;;999.90;;
47866;SDS011;33628;50.806;11.586;2024-03-02T10:51:58;1885.75;;;999.90;;
47866;SDS011;33628;50.806;11.586;2024-03-02T10:54:25;1917.70;;;999.90;;
47866;SDS011;33628;50.806;11.586;2024-03-02T10:56:53;1870.38;;;999.90;;
47866;SDS011;33628;50.806;11.586;2024-03-02T10:59:24;1952.05;;;999.90;;
47866;SDS011;33628;50.806;11.586;2024-03-02T11:01:55;1922.22;;;999.90;;
47866;SDS011;33628;50.806;11.586;2024-03-02T11:04:24;1987.03;;;999.90;;
47866;SDS011;33628;50.806;11.586;2024-03-02T11:06:51;1945.50;;;999.90;;
47866;SDS011;33628;50.806;11.586;2024-03-02T11:09:19;1800.32;;;999.90;;
47866;SDS011;33628;50.806;11.586;2024-03-02T11:11:48;1811.05;;;999.90;;
47866;SDS011;33628;50.806;11.586;2024-03-02T11:14:19;1804.85;;;999.90;;
47866;SDS011;33628;50.806;11.586;2024-03-02T11:16:50;1806.75;;;999.90;;
47866;SDS011;33628;50.806;11.586;2024-03-02T11:19:17;1849.57;;;999.90;;
47866;SDS011;33628;50.806;11.586;2024-03-02T11:21:43;1907.85;;;999.90;;
47866;SDS011;33628;50.806;11.586;2024-03-02T11:27:07;1945.00;;;999.90;;
47866;SDS011;33628;50.806;11.586;2024-03-02T11:29:42;1933.32;;;999.90;;
47866;SDS011;33628;50.806;11.586;2024-03-02T11:32:13;1934.95;;;999.90;;
47866;SDS011;33628;50.806;11.586;2024-03-02T11:34:40;1949.07;;;999.90;;
47866;SDS011;33628;50.806;11.586;2024-03-02T11:37:11;1949.75;;;999.90;;
47866;SDS011;33628;50.806;11.586;2024-03-02T11:39:38;1894.10;;;999.90;;
47866;SDS011;33628;50.806;11.586;2024-03-02T11:42:05;1890.03;;;999.90;;
47866;SDS011;33628;50.806;11.586;2024-03-02T11:44:37;1913.47;;;999.90;;
47866;SDS011;33628;50.806;11.586;2024-03-02T11:47:06;1923.40;;;999.90;;
47866;SDS011;33628;50.806;11.586;2024-03-02T11:49:37;1887.45;;;999.90;;
47866;SDS011;33628;50.806;11.586;2024-03-02T11:52:07;1892.22;;;999.90;;
47866;SDS011;33628;50.806;11.586;2024-03-02T11:54:36;1922.20;;;999.90;;
47866;SDS011;33628;50.806;11.586;2024-03-02T11:57:09;1829.93;;;999.90;;
47866;SDS011;33628;50.806;11.586;2024-03-02T11:59:35;1872.45;;;999.90;;
47866;SDS011;33628;50.806;11.586;2024-03-02T12:02:02;1713.43;;;999.90;;
47866;SDS011;33628;50.806;11.586;2024-03-02T12:04:29;1880.55;;;999.90;;
47866;SDS011;33628;50.806;11.586;2024-03-02T12:06:57;1923.65;;;999.90;;
47866;SDS011;33628;50.806;11.586;2024-03-02T12:09:27;1907.55;;;999.90;;
47866;SDS011;33628;50.806;11.586;2024-03-02T12:12:03;1842.15;;;999.90;;
47866;SDS011;33628;50.806;11.586;2024-03-02T12:14:32;1795.85;;;999.90;;
47866;SDS011;33628;50.806;11.586;2024-03-02T12:16:59;1875.82;;;999.90;;
47866;SDS011;33628;50.806;11.586;2024-03-02T12:19:26;1901.47;;;999.90;;
47866;SDS011;33628;50.806;11.586;2024-03-02T12:21:55;1818.53;;;999.90;;
47866;SDS011;33628;50.806;11.586;2024-03-02T12:24:22;1899.65;;;999.90;;
47866;SDS011;33628;50.806;11.586;2024-03-02T12:26:49;1879.75;;;999.90;;
47866;SDS011;33628;50.806;11.586;2024-03-02T12:29:16;1772.47;;;999.90;;
47866;SDS011;33628;50.806;11.586;2024-03-02T12:31:44;1861.35;;;999.90;;
47866;SDS011;33628;50.806;11.586;2024-03-02T12:34:13;1803.25;;;999.90;;
47866;SDS011;33628;50.806;11.586;2024-03-02T12:36:40;1827.30;;;999.90;;
47866;SDS011;33628;50.806;11.586;2024-03-02T12:39:07;1792.72;;;999.90;;
47866;SDS011;33628;50.806;11.586;2024-03-02T12:41:36;1814.43;;;999.90;;
47866;SDS011;33628;50.806;11.586;2024-03-02T12:44:03;1840.03;;;999.90;;
47866;SDS011;33628;50.806;11.586;2024-03-02T12:46:30;1845.85;;;999.90;;
47866;SDS011;33628;50.806;11.586;2024-03-02T12:48:58;1840.10;;;999.90;;
47866;SDS011;33628;50.806;11.586;2024-03-02T12:51:30;1900.40;;;999.90;;
47866;SDS011;33628;50.806;11.586;2024-03-02T12:53:57;1842.70;;;999.90;;
47866;SDS011;33628;50.806;11.586;2024-03-02T12:56:24;1876.25;;;999.90;;
47866;SDS011;33628;50.806;11.586;2024-03-02T12:58:52;1848.55;;;999.90;;
47866;SDS011;33628;50.806;11.586;2024-03-02T13:01:20;1673.75;;;999.90;;
47866;SDS011;33628;50.806;11.586;2024-03-02T13:03:47;1690.50;;;999.90;;
47866;SDS011;33628;50.806;11.586;2024-03-02T13:06:16;1809.72;;;999.90;;
47866;SDS011;33628;50.806;11.586;2024-03-02T13:08:43;1934.35;;;999.90;;
47866;SDS011;33628;50.806;11.586;2024-03-02T13:11:10;1992.07;;;999.90;;
47866;SDS011;33628;50.806;11.586;2024-03-02T13:13:38;1947.20;;;999.90;;
47866;SDS011;33628;50.806;11.586;2024-03-02T13:16:06;1932.13;;;999.90;;
47866;SDS011;33628;50.806;11.586;2024-03-02T13:18:34;1939.72;;;999.90;;
47866;SDS011;33628;50.806;11.586;2024-03-02T13:21:00;1996.63;;;999.90;;
47866;SDS011;33628;50.806;11.586;2024-03-02T13:23:28;1915.90;;;999.90;;
47866;SDS011;33628;50.806;11.586;2024-03-02T13:25:56;1755.47;;;999.90;;
47866;SDS011;33628;50.806;11.586;2024-03-02T13:28:26;1466.18;;;999.90;;
47866;SDS011;33628;50.806;11.586;2024-03-02T13:30:52;1957.47;;;999.90;;
47866;SDS011;33628;50.806;11.586;2024-03-02T13:33:19;1945.38;;;999.90;;
47866;SDS011;33628;50.806;11.586;2024-03-02T13:35:48;1971.15;;;999.90;;
47866;SDS011;33628;50.806;11.586;2024-03-02T13:38:15;232.63;;;176.15;;
47866;SDS011;33628;50.806;11.586;2024-03-02T13:40:43;1830.50;;;999.90;;
47866;SDS011;33628;50.806;11.586;2024-03-02T13:43:10;1744.95;;;999.90;;
47866;SDS011;33628;50.806;11.586;2024-03-02T13:45:37;1782.45;;;999.90;;
47866;SDS011;33628;50.806;11.586;2024-03-02T13:48:04;1385.43;;;999.90;;
47866;SDS011;33628;50.806;11.586;2024-03-02T13:50:31;1931.18;;;999.90;;
47866;SDS011;33628;50.806;11.586;2024-03-02T13:52:58;1898.63;;;999.90;;
47866;SDS011;33628;50.806;11.586;2024-03-02T13:55:24;1835.22;;;999.90;;
47866;SDS011;33628;50.806;11.586;2024-03-02T13:57:52;1818.63;;;999.90;;